Time;durP1;ratioP1;P1;durP2;ratioP2;P2;SDS_P1;SDS_P2;PMS_P1;PMS_P2;Temp;Humidity;BMP_temperature;BMP_pressure;BME280_temperature;BME280_humidity;BME280_pressure;Samples;Min_cycle;Max_cycle;Signal;HPM_P1;HPM_P2
2022/01/24 00:00:24;;;;;;;;;;;-2.30;83.60;;;-3.88;79.44;97339.38;4136512;33;19926;-81
2022/01/24 00:02:53;;;;;;;;;;;-2.30;83.50;;;-3.89;79.50;97335.00;4114524;34;20211;-81
2022/01/24 00:05:22;;;;;;;;;;;-2.30;83.80;;;-3.89;79.20;97343.03;4114634;34;19910;-81
2022/01/24 00:07:51;;;;;;;;;;;-2.40;83.50;;;-3.90;79.71;97336.00;4114155;34;20188;-82
2022/01/24 00:10:24;;;;;;;;;;;-2.30;83.70;;;-3.91;80.01;97345.88;4116980;33;19912;-81
2022/01/24 00:13:06;;;;;;;;;;;-2.30;84.80;;;-3.90;79.99;97346.72;4142636;33;20212;-81
2022/01/24 00:15:53;;;;;;;;;;;-2.40;83.80;;;-3.91;79.45;97353.03;4119468;34;20179;-81
2022/01/24 00:18:35;;;;;;;;;;;-2.40;83.60;;;-3.91;79.58;97355.72;4118950;34;20217;-81
2022/01/24 00:26:47;;;;;;;;;;;-2.40;83.60;;;-3.93;79.70;97368.41;4137017;33;20215;-81
2022/01/24 00:29:17;;;;;;;;;;;-2.40;83.80;;;-3.93;79.78;97365.72;4138230;33;19903;-81
2022/01/24 00:31:47;;;;;;;;;;;-2.40;83.60;;;-3.95;79.76;97368.56;4114737;33;19910;-81
2022/01/24 00:34:16;;;;;;;;;;;-2.40;83.80;;;-3.94;79.63;97374.78;4093524;34;19911;-82
2022/01/24 00:36:46;;;;;;;;;;;-2.40;83.60;;;-3.96;79.36;97374.06;4115620;34;19903;-81
2022/01/24 00:39:15;;;;;;;;;;;-2.40;83.30;;;-3.97;79.13;97378.56;4116238;34;20210;-81
2022/01/24 00:41:50;;;;;;;;;;;-2.40;83.10;;;-3.97;79.52;97372.38;4138972;33;19910;-81
2022/01/24 00:44:41;;;;;;;;;;;-2.40;83.20;;;-3.97;79.33;97373.22;4115593;34;19910;-81
2022/01/24 00:47:17;;;;;;;;;;;-2.40;83.00;;;-3.97;79.30;97373.22;4138354;33;20514;-81
2022/01/24 00:53:00;;;;;;;;;;;-2.40;83.30;;;-3.97;79.45;97372.38;4092629;34;20114;-81
2022/01/24 00:53:15;;;;;;;;;;;-2.40;83.30;;;-3.98;79.35;97370.69;4115276;34;20204;-81
2022/01/24 00:55:44;;;;;;;;;;;-2.40;83.30;;;-3.98;78.79;97368.03;4092366;34;19911;-81
2022/01/24 00:58:12;;;;;;;;;;;-2.40;83.00;;;-3.99;78.86;97369.84;4091848;34;20122;-81
2022/01/24 01:00:41;;;;;;;;;;;-2.40;82.80;;;-3.99;78.91;97374.38;4135890;33;20196;-81
2022/01/24 01:03:11;;;;;;;;;;;-2.40;82.80;;;-3.99;79.39;97374.38;4113125;34;19919;-81
2022/01/24 01:05:57;;;;;;;;;;;-2.40;83.20;;;-4.01;79.54;97375.34;4112537;34;20202;-81
2022/01/24 01:19:30;;;;;;;;;;;-2.50;82.70;;;-4.02;79.08;97405.75;4108753;34;20205;-80
2022/01/24 01:21:58;;;;;;;;;;;-2.50;83.10;;;-4.03;78.91;97409.44;4130779;33;20211;-81
2022/01/24 01:24:28;;;;;;;;;;;-2.50;82.90;;;-4.03;78.78;97417.44;4108457;34;20129;-81
2022/01/24 01:27:02;;;;;;;;;;;-2.50;82.80;;;-4.03;78.51;97411.28;4113114;34;20201;-81
2022/01/24 01:29:43;;;;;;;;;;;-2.50;82.60;;;-4.04;78.90;97405.06;4113429;34;20197;-81
2022/01/24 01:32:18;;;;;;;;;;;-2.50;82.70;;;-4.05;78.93;97414.06;4114098;33;19999;-81
2022/01/24 01:35:10;;;;;;;;;;;-2.50;83.10;;;-4.05;79.33;97419.44;4115260;34;19903;-81
2022/01/24 01:54:50;;;;;;;;;;;-2.50;82.80;;;-4.10;78.91;97424.41;4117786;34;20216;-82
2022/01/24 01:57:21;;;;;;;;;;;-2.50;82.80;;;-4.10;79.00;97432.41;4094132;34;19903;-82
2022/01/24 01:59:50;;;;;;;;;;;-2.50;83.10;;;-4.10;79.06;97431.56;4116415;33;20465;-82
2022/01/24 02:02:18;;;;;;;;;;;-2.50;83.10;;;-4.11;78.95;97433.41;4140158;33;19903;-82
2022/01/24 02:04:47;;;;;;;;;;;-2.50;83.10;;;-4.11;79.32;97430.72;4139851;33;19903;-82
2022/01/24 02:07:17;;;;;;;;;;;-2.60;83.10;;;-4.12;79.49;97439.75;4117074;34;20171;-82
2022/01/24 02:09:46;;;;;;;;;;;-2.60;83.10;;;-4.12;78.89;97439.75;4117617;34;19903;-82
2022/01/24 02:12:18;;;;;;;;;;;-2.60;82.80;;;-4.11;79.00;97441.44;4139937;33;20201;-82
2022/01/24 02:14:52;;;;;;;;;;;-2.60;83.00;;;-4.12;78.93;97439.75;4116149;34;19903;-82
2022/01/24 02:17:29;;;;;;;;;;;-2.60;82.90;;;-4.13;78.74;97443.41;4113861;34;19918;-81
2022/01/24 02:20:14;;;;;;;;;;;-2.60;82.50;;;-4.13;79.19;97447.91;4091885;33;20208;-82
2022/01/24 02:22:50;;;;;;;;;;;-2.60;83.10;;;-4.14;78.71;97447.06;4115042;34;20201;-82
2022/01/24 02:25:27;;;;;;;;;;;-2.60;82.80;;;-4.13;78.98;97451.41;4116929;33;20262;-82
2022/01/24 02:27:59;;;;;;;;;;;-2.60;83.00;;;-4.15;78.74;97445.38;4115367;34;19910;-82
2022/01/24 02:30:49;;;;;;;;;;;-2.60;82.80;;;-4.13;79.00;97447.91;4116938;33;20527;-82
2022/01/24 02:33:17;;;;;;;;;;;-2.60;82.90;;;-4.14;78.90;97459.59;4115163;33;19910;-82
2022/01/24 02:35:46;;;;;;;;;;;-2.60;83.00;;;-4.16;78.79;97459.72;4115045;34;20201;-82
2022/01/24 02:38:26;;;;;;;;;;;-2.60;82.80;;;-4.16;78.79;97462.41;4114401;34;19918;-82
2022/01/24 02:49:23;;;;;;;;;;;-2.60;83.00;;;-4.17;78.96;97463.38;4033346;34;20616;-82
2022/01/24 02:51:53;;;;;;;;;;;-2.60;82.90;;;-4.17;78.66;97458.03;4111457;33;20512;-82
2022/01/24 02:54:26;;;;;;;;;;;-2.60;82.70;;;-4.18;78.88;97464.38;4136343;33;19903;-82
2022/01/24 02:56:55;;;;;;;;;;;-2.60;82.70;;;-4.18;78.68;97467.06;4113220;34;20512;-82
2022/01/24 02:59:24;;;;;;;;;;;-2.60;82.60;;;-4.18;78.99;97473.25;4090850;34;20180;-82
2022/01/24 03:01:52;;;;;;;;;;;-2.60;82.70;;;-4.19;79.04;97470.72;4114998;33;20207;-82
2022/01/24 03:04:21;;;;;;;;;;;-2.60;82.90;;;-4.19;78.64;97484.06;4114050;34;19903;-82
2022/01/24 03:06:52;;;;;;;;;;;-2.60;82.80;;;-4.19;78.57;97476.06;4113663;34;20422;-82
2022/01/24 03:09:23;;;;;;;;;;;-2.60;82.60;;;-4.20;79.02;97475.22;4114370;34;20548;-82
2022/01/24 03:12:05;;;;;;;;;;;-2.60;82.80;;;-4.20;78.86;97474.41;4093577;34;19903;-82
2022/01/24 03:14:36;;;;;;;;;;;-2.60;82.80;;;-4.21;79.52;97473.53;4139253;33;20237;-82
2022/01/24 03:17:06;;;;;;;;;;;-2.60;83.10;;;-4.20;78.65;97485.09;4139185;33;20192;-82
2022/01/24 03:19:35;;;;;;;;;;;-2.60;82.80;;;-4.21;79.07;97488.75;4116582;34;19904;-82
2022/01/24 03:22:04;;;;;;;;;;;-2.70;82.60;;;-4.22;78.56;97482.56;4117316;33;20206;-82
2022/01/24 03:24:34;;;;;;;;;;;-2.70;82.60;;;-4.22;78.75;97476.38;4137070;33;20209;-82
2022/01/24 03:27:02;;;;;;;;;;;-2.70;82.60;;;-4.22;78.96;97487.06;4114836;34;20210;-81
2022/01/24 03:29:33;;;;;;;;;;;-2.70;82.90;;;-4.23;78.77;97485.38;4136717;33;20209;-82
2022/01/24 03:32:01;;;;;;;;;;;-2.70;82.90;;;-4.23;78.99;97488.06;4137530;33;19903;-82
2022/01/24 03:34:30;;;;;;;;;;;-2.70;82.90;;;-4.24;79.10;97489.88;4140173;33;20230;-81
2022/01/24 03:36:58;;;;;;;;;;;-2.70;83.00;;;-4.24;78.57;97489.03;4136310;33;20210;-82
2022/01/24 03:39:27;;;;;;;;;;;-2.70;82.60;;;-4.25;77.89;97493.53;4113565;34;20234;-82
2022/01/24 03:41:57;;;;;;;;;;;-2.70;82.60;;;-4.24;78.66;97502.41;4113185;33;19986;-82
2022/01/24 03:44:27;;;;;;;;;;;-2.70;82.80;;;-4.25;79.17;97503.41;4135009;33;20188;-82
2022/01/24 03:47:13;;;;;;;;;;;-2.70;83.00;;;-4.26;78.61;97499.03;4115400;34;20194;-82
2022/01/24 03:49:48;;;;;;;;;;;-2.70;82.60;;;-4.27;78.48;97500.00;4115056;34;19903;-82
2022/01/24 03:52:17;;;;;;;;;;;-2.70;82.50;;;-4.26;78.33;97509.72;4115215;34;19911;-82
2022/01/24 03:54:46;;;;;;;;;;;-2.70;82.60;;;-4.27;78.59;97508.91;4115029;34;19903;-82
2022/01/24 03:57:19;;;;;;;;;;;-2.70;82.80;;;-4.25;78.62;97519.44;4115534;34;20198;-82
2022/01/24 03:59:47;;;;;;;;;;;-2.70;82.70;;;-4.29;78.74;97516.22;4114959;34;20192;-82
2022/01/24 04:02:16;;;;;;;;;;;-2.70;82.70;;;-4.29;78.86;97524.22;4116239;34;20230;-81
2022/01/24 04:04:45;;;;;;;;;;;-2.70;82.80;;;-4.27;78.87;97524.06;4115415;34;19907;-82
2022/01/24 04:07:14;;;;;;;;;;;-2.70;82.90;;;-4.29;78.90;97523.38;4137757;33;19904;-82
2022/01/24 04:09:43;;;;;;;;;;;-2.70;82.80;;;-4.28;78.80;97528.59;4107197;34;19904;-82
2022/01/24 04:12:12;;;;;;;;;;;-2.70;82.80;;;-4.29;78.82;97529.59;4108411;33;19936;-80
2022/01/24 04:14:55;;;;;;;;;;;-2.70;82.70;;;-4.29;78.75;97523.38;4106974;34;20210;-81
2022/01/24 04:17:36;;;;;;;;;;;-2.70;82.80;;;-4.29;78.90;97534.06;4103937;34;20230;-81
2022/01/24 04:22:55;;;;;;;;;;;-2.70;83.00;;;-4.31;78.45;97545.75;4106655;34;20577;-80
2022/01/24 04:25:24;;;;;;;;;;;-2.70;82.60;;;-4.31;78.83;97545.75;4108079;34;19903;-81
2022/01/24 04:27:54;;;;;;;;;;;-2.70;82.80;;;-4.31;79.03;97547.59;4107049;34;20219;-80
2022/01/24 04:30:24;;;;;;;;;;;-2.80;82.80;;;-4.31;78.76;97548.41;4107163;33;20423;-80
2022/01/24 04:32:52;;;;;;;;;;;-2.70;82.80;;;-4.31;79.00;97548.41;4083917;34;20273;-81
2022/01/24 04:35:21;;;;;;;;;;;-2.70;82.90;;;-4.33;78.86;97545.06;4083848;34;19903;-80
2022/01/24 04:37:49;;;;;;;;;;;-2.70;83.10;;;-4.32;78.96;97551.25;4105445;34;20453;-81
2022/01/24 04:40:18;;;;;;;;;;;-2.70;83.20;;;-4.32;79.07;97551.25;4129018;33;20111;-80
2022/01/24 04:42:51;;;;;;;;;;;-2.80;82.90;;;-4.34;78.93;97548.72;4105530;34;20568;-81
2022/01/24 04:51:06;;;;;;;;;;;-2.80;82.80;;;-4.35;78.83;97567.56;4106220;33;19922;-81
2022/01/24 04:56:27;;;;;;;;;;;-2.80;82.40;;;-4.36;78.21;97582.78;4039060;33;20210;-81
2022/01/24 04:58:56;;;;;;;;;;;-2.80;82.10;;;-4.35;78.21;97578.25;4114060;34;19907;-81
2022/01/24 05:01:24;;;;;;;;;;;-2.80;82.30;;;-4.36;78.55;97582.78;4112455;33;20196;-80
2022/01/24 05:03:54;;;;;;;;;;;-2.80;82.20;;;-4.37;78.39;97589.09;4113992;34;19913;-81
2022/01/24 05:06:23;;;;;;;;;;;-2.80;82.40;;;-4.36;79.02;97587.25;4113257;34;20222;-81
2022/01/24 05:08:51;;;;;;;;;;;-2.80;82.70;;;-4.38;78.99;97579.41;4113265;34;19903;-81
2022/01/24 05:11:26;;;;;;;;;;;-2.80;82.60;;;-4.38;78.77;97594.56;4136860;33;20589;-81
2022/01/24 05:24:59;;;;;;;;;;;-2.90;82.50;;;-4.41;78.82;97585.03;4114470;34;19937;-81
2022/01/24 05:27:28;;;;;;;;;;;-2.80;82.60;;;-4.41;78.17;97593.03;4113948;34;20490;-81
2022/01/24 05:29:57;;;;;;;;;;;-2.90;82.40;;;-4.42;78.40;97599.38;4115517;34;20223;-81
2022/01/24 05:32:25;;;;;;;;;;;-2.80;82.30;;;-4.42;78.52;97594.03;4137343;33;20534;-81
2022/01/24 05:34:55;;;;;;;;;;;-2.80;82.50;;;-4.42;78.48;97602.03;4114644;34;19903;-82
2022/01/24 05:37:24;;;;;;;;;;;-2.90;82.50;;;-4.43;78.17;97611.03;4113934;34;19903;-81
2022/01/24 05:39:52;;;;;;;;;;;-2.90;82.30;;;-4.43;78.72;97604.88;4114715;34;20198;-81
2022/01/24 05:42:21;;;;;;;;;;;-2.90;82.60;;;-4.43;78.57;97603.03;4113952;34;19910;-80
2022/01/24 05:44:50;;;;;;;;;;;-2.90;82.60;;;-4.43;78.30;97608.38;4113985;34;20229;-81
2022/01/24 05:47:18;;;;;;;;;;;-2.90;82.60;;;-4.44;78.65;97612.03;4113412;34;20214;-81
2022/01/24 05:49:47;;;;;;;;;;;-2.90;82.30;;;-4.45;78.36;97607.66;4090756;34;20226;-81
2022/01/24 05:52:17;;;;;;;;;;;-2.90;82.40;;;-4.46;78.59;97608.66;4182801;27;19910;-86
2022/01/24 05:54:45;;;;;;;;;;;-2.90;82.60;;;-4.47;78.61;97613.16;4113960;34;20106;-85
2022/01/24 05:57:14;;;;;;;;;;;-2.90;82.60;;;-4.48;78.83;97619.47;4113539;34;20218;-86
2022/01/24 05:59:43;;;;;;;;;;;-2.90;82.90;;;-4.47;78.96;97623.03;4113666;34;20206;-86
2022/01/24 06:02:11;;;;;;;;;;;-2.90;82.60;;;-4.48;78.84;97619.47;4114661;34;20236;-86
2022/01/24 06:04:40;;;;;;;;;;;-2.90;82.60;;;-4.48;78.65;97621.31;4114190;34;19910;-86
2022/01/24 06:07:08;;;;;;;;;;;-2.90;82.40;;;-4.48;78.87;97624.00;4090845;34;19903;-86
2022/01/24 06:09:38;;;;;;;;;;;-2.90;82.60;;;-4.50;78.74;97618.78;4091662;34;20584;-86
2022/01/24 06:12:09;;;;;;;;;;;-2.90;82.70;;;-4.47;78.52;97634.53;4090914;34;20205;-86
2022/01/24 06:14:38;;;;;;;;;;;-2.90;82.80;;;-4.48;78.69;97637.38;4091602;34;20229;-86
2022/01/24 06:17:06;;;;;;;;;;;-2.90;82.70;;;-4.50;78.36;97639.31;4090844;34;19919;-87
2022/01/24 06:19:35;;;;;;;;;;;-2.90;82.30;;;-4.47;78.61;97644.41;4113791;34;20215;-86
2022/01/24 06:22:04;;;;;;;;;;;-2.90;82.40;;;-4.48;78.82;97654.22;4112093;34;19910;-86
2022/01/24 06:24:33;;;;;;;;;;;-2.90;82.60;;;-4.47;78.75;97655.09;4112340;34;20191;-86
2022/01/24 06:27:03;;;;;;;;;;;-2.90;82.50;;;-4.47;78.57;97663.94;4111608;34;19907;-86
2022/01/24 06:29:32;;;;;;;;;;;-2.90;82.60;;;-4.48;78.54;97664.09;4113198;34;20219;-87
2022/01/24 06:32:00;;;;;;;;;;;-2.90;82.80;;;-4.50;78.69;97671.41;4089737;34;20142;-86
2022/01/24 06:34:29;;;;;;;;;;;-2.90;82.70;;;-4.47;78.61;97671.13;4089608;34;20230;-86
2022/01/24 06:36:57;;;;;;;;;;;-2.90;82.70;;;-4.48;78.37;97666.78;4134486;33;19910;-86
2022/01/24 06:39:26;;;;;;;;;;;-2.90;82.10;;;-4.51;78.43;97665.19;4089870;34;20228;-86
2022/01/24 06:42:08;;;;;;;;;;;-2.90;82.30;;;-4.48;78.39;97675.63;4114766;34;19903;-86
2022/01/24 06:44:38;;;;;;;;;;;-2.90;82.30;;;-4.47;78.28;97671.13;4114529;34;19903;-86
2022/01/24 06:47:07;;;;;;;;;;;-2.90;82.50;;;-4.47;78.82;97671.13;4113992;34;20262;-86
2022/01/24 06:49:36;;;;;;;;;;;-2.90;82.30;;;-4.47;78.69;97663.94;4092315;34;19910;-86
2022/01/24 06:52:06;;;;;;;;;;;-2.90;82.40;;;-4.47;78.44;97660.44;4092541;34;19910;-86
2022/01/24 06:54:35;;;;;;;;;;;-2.90;82.30;;;-4.47;78.25;97661.28;4094217;34;20229;-86
2022/01/24 06:57:04;;;;;;;;;;;-2.90;82.30;;;-4.44;78.32;97670.81;4115916;34;19903;-86
2022/01/24 06:59:33;;;;;;;;;;;-2.90;82.20;;;-4.44;78.23;97684.19;4091433;34;20614;-86
2022/01/24 07:02:03;;;;;;;;;;;-2.80;82.10;;;-4.43;78.43;97677.88;4091884;34;19910;-85
2022/01/24 07:04:32;;;;;;;;;;;-2.80;82.20;;;-4.41;78.09;97681.25;4091846;34;20224;-86
2022/01/24 07:07:01;;;;;;;;;;;-2.80;82.00;;;-4.40;78.18;97677.59;4111673;34;19903;-86
2022/01/24 07:09:29;;;;;;;;;;;-2.80;81.90;;;-4.38;78.19;97686.31;4112406;34;20191;-86
2022/01/24 07:11:58;;;;;;;;;;;-2.80;82.00;;;-4.26;77.94;97683.50;4108078;34;19903;-86
2022/01/24 07:14:26;;;;;;;;;;;-2.70;81.80;;;-4.18;77.58;97675.63;4082931;34;20222;-87
2022/01/24 07:17:15;;;;;;;;;;;-2.60;81.50;;;-4.12;76.93;97668.88;4104731;34;19903;-87
2022/01/24 07:19:45;;;;;;;;;;;-2.50;81.10;;;-4.01;76.79;97676.78;4106987;34;20212;-87
2022/01/24 07:22:13;;;;;;;;;;;-2.50;80.70;;;-3.92;76.76;97683.06;4084694;34;20215;-87
2022/01/24 07:24:42;;;;;;;;;;;-2.40;80.40;;;-3.87;76.89;97688.84;4083815;34;19910;-87
2022/01/24 07:27:10;;;;;;;;;;;-2.30;80.00;;;-3.85;76.03;97681.53;4082142;34;20112;-87
2022/01/24 07:29:39;;;;;;;;;;;-2.30;79.60;;;-3.82;75.82;97681.25;4084082;34;20581;-87
2022/01/24 07:32:08;;;;;;;;;;;-2.20;79.50;;;-3.77;75.83;97691.53;4082055;34;19903;-87
2022/01/24 07:34:37;;;;;;;;;;;-2.20;79.40;;;-3.74;75.17;97697.44;4081258;34;19903;-87
2022/01/24 07:37:07;;;;;;;;;;;-2.20;79.30;;;-3.68;75.65;97709.41;4103776;34;20213;-87
2022/01/24 07:39:35;;;;;;;;;;;-2.10;79.30;;;-3.65;75.73;97705.56;4081227;34;20221;-87
2022/01/24 07:42:15;;;;;;;;;;;-2.10;79.20;;;-3.64;75.42;97715.28;4104862;34;19903;-87
2022/01/24 07:44:44;;;;;;;;;;;-2.10;79.10;;;-3.60;75.50;97719.38;4126917;33;20236;-87
2022/01/24 07:47:13;;;;;;;;;;;-2.10;79.10;;;-3.60;75.63;97706.84;4080669;34;19907;-87
2022/01/24 07:49:41;;;;;;;;;;;-2.10;79.10;;;-3.57;75.53;97695.03;4083029;34;20194;-87
2022/01/24 07:52:11;;;;;;;;;;;-2.00;79.20;;;-3.57;75.56;97678.97;4083269;34;19933;-87
2022/01/24 07:54:40;;;;;;;;;;;-2.00;78.90;;;-3.56;75.67;97696.72;4106451;34;20110;-87
2022/01/24 07:57:08;;;;;;;;;;;-2.00;79.00;;;-3.51;75.13;97696.28;4106408;34;20224;-87
2022/01/24 07:59:37;;;;;;;;;;;-2.00;79.10;;;-3.50;75.11;97696.13;4107103;34;20243;-87
2022/01/24 08:02:06;;;;;;;;;;;-2.00;78.90;;;-3.47;75.10;97698.50;4109231;34;19926;-87
2022/01/24 08:04:34;;;;;;;;;;;-2.00;78.90;;;-3.43;75.24;97696.38;4091410;34;20211;-87
2022/01/24 08:07:03;;;;;;;;;;;-1.90;79.10;;;-3.42;74.87;97695.41;4113219;34;20572;-87
2022/01/24 08:09:33;;;;;;;;;;;-1.90;78.80;;;-3.37;74.59;97703.84;4107616;34;20134;-87
2022/01/24 08:12:02;;;;;;;;;;;-1.90;78.40;;;-3.32;74.61;97704.25;4111402;34;19954;-88
2022/01/24 08:14:30;;;;;;;;;;;-1.90;78.20;;;-3.29;74.09;97703.94;4090650;34;20212;-87
2022/01/24 08:17:00;;;;;;;;;;;-1.80;78.20;;;-3.28;73.95;97711.00;4113105;34;20240;-86
2022/01/24 08:19:29;;;;;;;;;;;-1.80;78.00;;;-3.20;74.16;97717.44;4090394;34;19910;-88
2022/01/24 08:21:59;;;;;;;;;;;-1.70;78.20;;;-3.16;74.32;97719.69;4090452;34;19903;-88
2022/01/24 08:24:28;;;;;;;;;;;-1.70;78.30;;;-3.13;74.56;97724.75;4091294;34;20043;-87
2022/01/24 08:26:58;;;;;;;;;;;-1.70;78.10;;;-3.09;74.48;97715.44;4088000;34;19903;-88
2022/01/24 08:29:27;;;;;;;;;;;-1.60;78.20;;;-3.03;74.13;97723.91;4107897;34;19903;-88
2022/01/24 08:31:55;;;;;;;;;;;-1.60;78.10;;;-3.03;74.29;97723.91;4089965;34;19910;-86
2022/01/24 08:34:24;;;;;;;;;;;-1.60;78.10;;;-3.00;74.49;97734.31;4091257;34;20470;-87
2022/01/24 08:36:52;;;;;;;;;;;-1.50;78.10;;;-2.97;74.01;97728.66;4089915;34;19903;-86
2022/01/24 08:39:21;;;;;;;;;;;-1.50;78.00;;;-2.95;74.28;97737.41;4090940;34;20225;-87
2022/01/24 08:42:01;;;;;;;;;;;-1.50;78.00;;;-2.93;74.35;97741.63;4091381;34;19903;-87
2022/01/24 08:45:43;;;;;;;;;;;-1.50;78.10;;;-2.92;74.53;97734.44;4093015;34;19903;-87
2022/01/24 08:47:24;;;;;;;;;;;-1.50;78.30;;;-2.89;74.28;97742.16;4092521;34;20503;-87
2022/01/24 08:49:52;;;;;;;;;;;-1.40;78.30;;;-2.89;74.52;97734.13;4093127;34;19911;-87
2022/01/24 08:52:21;;;;;;;;;;;-1.40;78.20;;;-2.86;74.25;97727.63;4092517;34;20197;-87
2022/01/24 08:54:50;;;;;;;;;;;-1.40;78.20;;;-2.85;74.63;97737.38;4116466;34;19910;-87
2022/01/24 08:57:21;;;;;;;;;;;-1.40;78.20;;;-2.84;74.53;97747.94;4091472;34;20067;-87
2022/01/24 08:59:51;;;;;;;;;;;-1.40;78.20;;;-2.82;74.62;97747.78;4137480;33;19910;-87
2022/01/24 09:02:20;;;;;;;;;;;-1.30;78.40;;;-2.82;74.46;97739.72;4092012;34;19904;-87
2022/01/24 09:04:48;;;;;;;;;;;-1.30;78.30;;;-2.80;74.71;97752.00;4115002;34;19904;-87
2022/01/24 09:07:19;;;;;;;;;;;-1.30;78.20;;;-2.80;74.27;97746.66;4091941;34;20252;-88
2022/01/24 09:09:48;;;;;;;;;;;-1.30;78.20;;;-2.78;74.47;97754.53;4115886;34;19903;-87
2022/01/24 09:12:16;;;;;;;;;;;-1.30;78.20;;;-2.79;74.55;97753.69;4115315;34;20206;-87
2022/01/24 09:14:47;;;;;;;;;;;-1.30;78.10;;;-2.75;74.55;97766.78;4092383;34;19907;-86
2022/01/24 09:18:19;;;;;;;;;;;;;;;;;;;;;
2022/01/24 09:22:20;;;;;;;;;;;-1.20;78.00;;;-2.74;74.28;97763.13;3914740;34;20225;-86
2022/01/24 09:24:49;;;;;;;;;;;-1.30;78.10;;;-2.74;74.57;97761.28;4085770;34;19903;-86
2022/01/24 09:27:21;;;;;;;;;;;-1.20;78.00;;;-2.73;74.47;97762.13;4085747;34;20237;-86
2022/01/24 09:30:00;;;;;;;;;;;-1.20;78.00;;;-2.74;74.29;97757.75;4087577;34;20498;-86
2022/01/24 09:32:29;;;;;;;;;;;-1.20;78.00;;;-2.77;74.50;97757.06;4110613;34;20223;-85
2022/01/24 09:35:17;;;;;;;;;;;-1.20;78.00;;;-2.77;74.75;97754.38;4092357;34;20252;-86
2022/01/24 09:37:57;;;;;;;;;;;-1.20;78.00;;;-2.78;74.46;97755.41;4114363;33;20186;-87
2022/01/24 09:40:32;;;;;;;;;;;-1.20;78.00;;;-2.78;74.69;97749.16;4115893;34;20201;-86
2022/01/24 09:43:13;;;;;;;;;;;-1.20;78.00;;;-2.78;74.50;97750.03;4093938;34;20218;-87
2022/01/24 09:45:48;;;;;;;;;;;-1.20;78.00;;;-2.80;74.85;97745.78;4114424;34;19903;-87
2022/01/24 09:48:23;;;;;;;;;;;-1.30;78.10;;;-2.80;74.59;97743.13;4115953;34;19903;-86
2022/01/24 09:50:57;;;;;;;;;;;-1.20;78.20;;;-2.80;74.73;97743.97;4116506;34;20205;-86
2022/01/24 09:53:28;;;;;;;;;;;-1.20;78.10;;;-2.81;74.75;97744.97;4091351;34;19907;-87
2022/01/24 09:56:04;;;;;;;;;;;-1.30;78.10;;;-2.85;74.76;97732.84;4114011;34;20199;-87
2022/01/24 09:58:37;;;;;;;;;;;-1.30;78.30;;;-2.82;75.10;97743.28;4111286;33;19903;-86
2022/01/24 10:01:13;;;;;;;;;;;-1.30;78.30;;;-2.83;74.74;97736.22;4111575;34;20198;-86
2022/01/24 10:04:09;;;;;;;;;;;-1.30;78.30;;;-2.82;74.66;97732.56;4111675;34;20197;-87
2022/01/24 10:07:12;;;;;;;;;;;-1.30;78.30;;;-2.82;75.14;97745.09;4088793;34;20192;-86
2022/01/24 10:09:51;;;;;;;;;;;-1.30;78.30;;;-2.83;74.94;97746.94;4090007;34;19914;-87
2022/01/24 10:16:24;;;;;;;;;;;-1.30;78.40;;;-2.87;74.75;97732.13;4088680;34;19918;-87
2022/01/24 10:18:10;;;;;;;;;;;-1.30;78.20;;;-2.88;75.08;97727.75;4111242;34;19912;-87
2022/01/24 10:20:43;;;;;;;;;;;-1.30;78.30;;;-2.89;74.74;97726.06;4111059;34;19903;-86
2022/01/24 10:23:24;;;;;;;;;;;-1.30;78.30;;;-2.87;74.83;97736.66;4111386;33;20238;-86
2022/01/24 10:26:02;;;;;;;;;;;-1.30;78.40;;;-2.89;74.93;97735.97;4111254;33;19903;-87
2022/01/24 10:28:33;;;;;;;;;;;-1.30;78.40;;;-2.91;74.96;97728.09;4111293;33;20425;-86
2022/01/24 10:31:15;;;;;;;;;;;-1.30;78.40;;;-2.93;75.22;97733.56;4111334;34;20198;-86
2022/01/24 10:34:02;;;;;;;;;;;-1.30;78.40;;;-2.90;75.09;97734.28;4111605;33;19911;-87
2022/01/24 10:36:37;;;;;;;;;;;-1.30;78.40;;;-2.91;75.19;97727.22;4113204;34;20239;-86
2022/01/24 10:39:18;;;;;;;;;;;-1.30;78.50;;;-2.94;74.94;97721.16;4091236;34;20222;-86
2022/01/24 10:42:24;;;;;;;;;;;-1.30;78.50;;;-2.94;75.67;97723.84;4115100;34;20229;-87
2022/01/24 10:45:27;;;;;;;;;;;-1.30;78.50;;;-2.94;75.34;97728.38;4112877;34;19903;-87
2022/01/24 10:47:55;;;;;;;;;;;-1.30;78.50;;;-2.95;74.82;97732.88;4062039;34;20202;-86
2022/01/24 10:50:25;;;;;;;;;;;-1.40;78.40;;;-2.98;75.14;97726.97;4064279;34;19904;-86
2022/01/24 10:52:54;;;;;;;;;;;-1.40;78.40;;;-2.96;75.05;97735.72;4064857;34;19904;-87
2022/01/24 10:55:25;;;;;;;;;;;-1.40;78.40;;;-3.00;75.28;97732.47;4063344;34;19904;-86
2022/01/24 10:58:07;;;;;;;;;;;-1.40;78.40;;;-3.00;74.72;97721.78;4084386;34;19903;-87
2022/01/24 11:00:47;;;;;;;;;;;-1.40;78.40;;;-3.02;75.56;97707.66;4066408;34;20111;-88
2022/01/24 11:03:19;;;;;;;;;;;-1.40;78.50;;;-3.02;75.13;97705.00;4089401;34;20251;-87
2022/01/24 11:05:48;;;;;;;;;;;-1.40;78.50;;;-3.00;75.36;97707.50;4112145;34;19903;-87
2022/01/24 11:08:17;;;;;;;;;;;-1.40;78.50;;;-3.04;75.28;97700.78;4110558;34;20203;-87
2022/01/24 11:10:47;;;;;;;;;;;-1.50;78.60;;;-3.02;75.34;97706.81;4106774;34;20250;-87
2022/01/24 11:13:43;;;;;;;;;;;-1.40;78.70;;;-3.03;74.84;97707.81;4106598;34;19910;-87
2022/01/24 11:16:18;;;;;;;;;;;-1.40;78.60;;;-3.03;75.52;97713.19;4086434;34;19918;-88
2022/01/24 11:18:50;;;;;;;;;;;-1.40;78.70;;;-3.06;75.40;97718.84;4105858;34;20206;-86
2022/01/24 11:21:25;;;;;;;;;;;-1.40;78.70;;;-3.08;75.43;97721.63;4103050;33;19986;-87
2022/01/24 11:23:54;;;;;;;;;;;-1.50;78.70;;;-3.05;75.43;97731.25;4079481;34;19903;-86
2022/01/24 11:26:22;;;;;;;;;;;-1.40;78.70;;;-3.08;75.53;97740.38;4079253;34;20206;-86
2022/01/24 11:28:52;;;;;;;;;;;-1.50;78.80;;;-3.11;75.62;97741.53;4125538;33;19903;-86
2022/01/24 11:31:27;;;;;;;;;;;-1.50;78.80;;;-3.10;75.41;97751.25;4080152;34;20538;-86
2022/01/24 11:34:00;;;;;;;;;;;-1.50;78.80;;;-3.12;75.49;97747.88;4125537;33;20110;-86
2022/01/24 11:36:37;;;;;;;;;;;-1.50;78.70;;;-3.11;75.19;97743.38;4102586;34;20247;-86
2022/01/24 11:39:05;;;;;;;;;;;-1.50;78.80;;;-3.14;75.55;97739.13;4080843;34;20197;-86
2022/01/24 11:41:39;;;;;;;;;;;-1.50;78.80;;;-3.16;75.28;97738.44;4104551;34;20513;-86
2022/01/24 11:44:12;;;;;;;;;;;-1.50;78.80;;;-3.19;75.15;97730.72;4104773;34;20321;-87
2022/01/24 11:46:45;;;;;;;;;;;-1.60;78.70;;;-3.19;75.46;97720.00;4105655;34;20520;-86
2022/01/24 11:49:38;;;;;;;;;;;-1.60;78.80;;;-3.20;75.28;97714.78;4081919;34;20527;-86
2022/01/24 11:52:11;;;;;;;;;;;-1.60;78.80;;;-3.24;75.16;97708.88;4104415;34;20219;-87
2022/01/24 11:55:33;;;;;;;;;;;-1.60;78.70;;;-3.22;75.61;97714.06;4104242;34;20208;-87
2022/01/24 11:58:04;;;;;;;;;;;-1.60;78.60;;;-3.27;75.30;97711.84;4087769;34;20235;-86
2022/01/24 12:00:44;;;;;;;;;;;-1.60;78.80;;;-3.27;75.17;97706.47;4104629;34;19911;-87
2022/01/24 12:03:17;;;;;;;;;;;-1.60;78.70;;;-3.27;75.23;97709.16;4104593;34;19904;-87
2022/01/24 12:05:48;;;;;;;;;;;-1.70;78.60;;;-3.29;75.45;97698.59;4110306;34;20201;-87
2022/01/24 12:08:29;;;;;;;;;;;-1.70;78.70;;;-3.30;75.40;97696.91;4111899;34;20140;-87
2022/01/24 12:11:14;;;;;;;;;;;-1.70;78.80;;;-3.32;75.56;97700.72;4113737;34;19971;-87
2022/01/24 12:13:43;;;;;;;;;;;-1.70;78.80;;;-3.33;75.57;97702.53;4109106;34;19910;-87
2022/01/24 12:16:14;;;;;;;;;;;-1.70;78.80;;;-3.35;75.47;97698.34;4088365;34;20210;-87
2022/01/24 12:19:02;;;;;;;;;;;-1.70;79.60;;;-3.34;75.57;97711.56;4090227;34;19903;-89
2022/01/24 12:21:36;;;;;;;;;;;-1.70;78.70;;;-3.36;75.33;97710.03;4090973;34;20240;-88
2022/01/24 12:24:10;;;;;;;;;;;-1.80;78.70;;;-3.34;75.70;97716.09;4113364;34;20230;-88
2022/01/24 12:27:06;;;;;;;;;;;-1.80;78.70;;;-3.38;75.36;97718.22;4091018;34;19903;-88
2022/01/24 12:29:51;;;;;;;;;;;-1.70;78.90;;;-3.39;75.50;97722.72;4089916;34;20198;-88
2022/01/24 12:32:27;;;;;;;;;;;-1.80;78.70;;;-3.43;75.26;97713.31;4108503;33;19907;-87
2022/01/24 12:34:55;;;;;;;;;;;-1.80;78.80;;;-3.40;75.47;97709.47;4090793;34;20919;-88
2022/01/24 12:37:25;;;;;;;;;;;-1.80;78.80;;;-3.41;75.56;97716.66;4088894;34;20207;-88
2022/01/24 12:39:58;;;;;;;;;;;-1.80;78.80;;;-3.43;75.60;97713.31;4107884;34;19910;-88
2022/01/24 12:42:48;;;;;;;;;;;-1.80;78.80;;;-3.44;75.57;97706.25;4130717;33;20455;-87
2022/01/24 12:48:18;;;;;;;;;;;-1.80;78.70;;;-3.46;75.31;97697.53;4085570;34;20496;-88
2022/01/24 12:50:59;;;;;;;;;;;-1.90;78.70;;;-3.48;75.04;97704.84;4108721;33;20048;-89
2022/01/24 12:53:28;;;;;;;;;;;-1.90;78.80;;;-3.49;75.33;97708.50;4082921;34;20126;-88
2022/01/24 12:55:58;;;;;;;;;;;-1.90;78.80;;;-3.52;75.08;97703.44;4080987;34;19903;-90
2022/01/24 12:58:54;;;;;;;;;;;-1.90;78.90;;;-3.52;75.53;97703.44;4102722;33;19907;-89